Time;durP1;ratioP1;P1;durP2;ratioP2;P2;SDS_P1;SDS_P2;PMS_P1;PMS_P2;Temp;Humidity;BMP_temperature;BMP_pressure;BME280_temperature;BME280_humidity;BME280_pressure;Samples;Min_cycle;Max_cycle;Signal;HPM_P1;HPM_P2
2024/01/30 00:00:51;;;;;;;30.10;14.00;;;;;;;2.19;80.69;101146.12;109625;1250;67607;-64
2024/01/30 00:03:48;;;;;;;30.00;12.30;;;;;;;2.19;80.71;101147.36;109567;1251;73413;-64
2024/01/30 00:06:34;;;;;;;31.10;13.00;;;;;;;2.16;81.06;101140.77;109610;1251;57166;-63
2024/01/30 00:09:21;;;;;;;33.30;14.10;;;;;;;2.12;81.49;101140.52;109617;1251;60259;-63
2024/01/30 00:12:07;;;;;;;32.30;14.10;;;;;;;2.12;81.74;101135.98;109654;1251;72952;-64
2024/01/30 00:14:54;;;;;;;33.90;14.00;;;;;;;2.13;81.86;101135.08;109616;1251;65558;-64
2024/01/30 00:17:41;;;;;;;37.40;14.70;;;;;;;2.14;81.82;101135.39;109631;1251;72639;-64
2024/01/30 00:20:28;;;;;;;30.90;12.80;;;;;;;2.14;82.06;101132.44;109625;1251;56992;-65
2024/01/30 00:23:14;;;;;;;33.10;14.50;;;;;;;2.12;82.46;101132.13;109630;1252;60184;-64
2024/01/30 00:26:01;;;;;;;31.90;14.10;;;;;;;2.10;82.46;101133.58;109681;1251;71419;-65
2024/01/30 00:28:48;;;;;;;36.70;15.60;;;;;;;2.07;82.71;101138.02;108809;1251;1002897;-64
2024/01/30 00:31:35;;;;;;;35.30;14.70;;;;;;;2.03;82.96;101136.02;109632;1251;72569;-64
2024/01/30 00:34:25;;;;;;;37.50;16.10;;;;;;;2.01;83.06;101138.68;109559;1251;59820;-66
2024/01/30 00:37:12;;;;;;;34.60;15.80;;;;;;;2.00;83.29;101134.52;109683;1251;60037;-64
2024/01/30 00:39:58;;;;;;;37.60;15.20;;;;;;;1.77;83.74;101100.42;109650;1251;73031;-64
2024/01/30 00:42:45;;;;;;;34.10;14.80;;;;;;;1.96;83.66;101129.70;109650;1251;67917;-64
2024/01/30 00:45:32;;;;;;;34.40;15.00;;;;;;;1.94;83.87;101135.36;109632;1251;73601;-65
2024/01/30 00:48:18;;;;;;;37.90;16.40;;;;;;;1.90;84.20;101133.73;108838;1251;1002685;-64
2024/01/30 00:51:05;;;;;;;35.30;15.20;;;;;;;1.85;84.43;101133.83;108941;1251;1002320;-64
2024/01/30 00:53:51;;;;;;;38.20;15.90;;;;;;;1.81;84.48;101132.20;109638;1250;72304;-63
2024/01/30 00:56:38;;;;;;;36.40;16.50;;;;;;;1.75;85.18;101133.20;109690;1251;67638;-64
2024/01/30 00:59:25;;;;;;;39.40;18.10;;;;;;;1.72;85.50;101131.70;109637;1251;73031;-64
2024/01/30 01:02:11;;;;;;;37.20;17.60;;;;;;;1.70;85.55;101126.14;109613;1251;57610;-64
2024/01/30 01:04:58;;;;;;;41.90;16.80;;;;;;;1.70;85.55;101126.15;109677;1251;60123;-64
2024/01/30 01:07:47;;;;;;;33.50;15.40;;;;;;;1.68;85.95;101127.92;109659;1251;73031;-64
2024/01/30 01:10:33;;;;;;;37.90;15.40;;;;;;;1.65;86.69;101125.22;109531;1251;66446;-65
2024/01/30 01:13:20;;;;;;;34.40;14.60;;;;;;;1.62;86.85;101121.78;109669;1251;73491;-64
2024/01/30 01:16:07;;;;;;;39.80;17.80;;;;;;;1.59;86.80;101124.14;109669;1251;57409;-65
2024/01/30 01:18:53;;;;;;;32.40;14.00;;;;;;;1.54;86.74;101121.61;109576;1251;60172;-64
2024/01/30 01:21:39;;;;;;;36.40;16.30;;;;;;;1.49;87.28;101124.71;109619;1251;73686;-63
2024/01/30 01:24:26;;;;;;;38.70;17.00;;;;;;;1.44;87.43;101122.73;109664;1251;65431;-64
2024/01/30 01:27:13;;;;;;;41.80;18.30;;;;;;;1.40;88.25;101121.94;109597;1251;72690;-64
2024/01/30 01:29:59;;;;;;;41.80;18.10;;;;;;;1.37;88.34;101119.55;109592;1251;57316;-65
2024/01/30 01:32:50;;;;;;;36.70;16.40;;;;;;;1.37;88.61;101123.58;109785;1251;59063;-64
2024/01/30 01:35:37;;;;;;;37.50;16.20;;;;;;;1.36;88.75;101122.55;109719;1251;72056;-65
2024/01/30 01:38:23;;;;;;;30.30;13.80;;;;;;;1.36;88.97;101126.57;109696;1251;67638;-64
2024/01/30 01:41:10;;;;;;;36.90;16.10;;;;;;;1.33;89.25;101118.61;109694;1251;70377;-65
2024/01/30 01:43:56;;;;;;;32.50;13.60;;;;;;;1.30;89.41;101126.52;109652;1251;57348;-64
2024/01/30 01:46:43;;;;;;;36.70;15.60;;;;;;;1.28;89.82;101125.36;109560;1251;59839;-65
2024/01/30 01:49:30;;;;;;;36.30;15.90;;;;;;;1.25;89.78;101127.70;109207;1254;72933;-64
2024/01/30 01:52:17;;;;;;;35.20;14.50;;;;;;;1.23;89.89;101123.73;109398;1254;67180;-64
2024/01/30 01:55:04;;;;;;;38.30;16.60;;;;;;;1.20;90.24;101119.06;109331;1254;73508;-65
2024/01/30 01:57:53;;;;;;;40.10;16.10;;;;;;;1.19;90.14;101113.48;109361;1254;57398;-63
2024/01/30 02:00:41;;;;;;;41.10;17.80;;;;;;;1.20;90.61;101112.94;109184;1254;61163;-63
2024/01/30 02:03:28;;;;;;;32.00;13.50;;;;;;;1.20;90.46;101110.50;109359;1255;71334;-65
2024/01/30 02:06:16;;;;;;;32.70;12.60;;;;;;;1.19;90.44;101112.44;109230;1254;67661;-64
2024/01/30 02:09:04;;;;;;;34.90;13.70;;;;;;;1.08;90.44;101098.34;109197;1255;72717;-64
2024/01/30 02:11:51;;;;;;;38.30;15.70;;;;;;;1.16;90.27;101113.03;109198;1254;57295;-64
2024/01/30 02:14:48;;;;;;;34.90;15.00;;;;;;;1.11;90.64;101111.05;109290;1256;60054;-63
2024/01/30 02:17:34;;;;;;;41.60;18.30;;;;;;;1.06;90.76;101105.39;109298;1255;71871;-64
2024/01/30 02:20:24;;;;;;;40.40;18.00;;;;;;;1.04;91.06;101102.46;109392;1251;68801;-64
2024/01/30 02:23:12;;;;;;;34.10;16.40;;;;;;;1.03;91.15;101094.80;109548;1251;72571;-64
2024/01/30 02:25:58;;;;;;;34.90;14.90;;;;;;;1.01;91.62;101094.98;109601;1251;57395;-65
2024/01/30 02:28:46;;;;;;;32.40;14.50;;;;;;;1.00;91.65;101092.22;109678;1251;58753;-64
2024/01/30 02:31:33;;;;;;;30.80;15.20;;;;;;;0.96;92.12;101091.61;109660;1250;74087;-64
2024/01/30 02:34:21;;;;;;;33.50;15.10;;;;;;;0.92;92.56;101085.23;109695;1250;68910;-65
2024/01/30 02:37:07;;;;;;;37.60;16.20;;;;;;;0.88;92.77;101088.80;109564;1251;73706;-64
2024/01/30 02:39:54;;;;;;;30.90;14.20;;;;;;;0.84;92.85;101089.61;109599;1251;58325;-63
2024/01/30 02:42:41;;;;;;;42.60;18.30;;;;;;;0.79;93.39;101092.67;109608;1251;60022;-64
2024/01/30 02:45:28;;;;;;;41.90;18.10;;;;;;;0.77;93.26;101096.90;109608;1251;72929;-64
2024/01/30 02:48:14;;;;;;;40.50;17.70;;;;;;;0.78;93.26;101094.98;109677;1251;65603;-64
2024/01/30 02:51:01;;;;;;;43.10;18.30;;;;;;;0.78;93.38;101094.79;109642;1251;73688;-64
2024/01/30 02:53:48;;;;;;;47.70;18.90;;;;;;;0.77;93.35;101096.02;109214;1251;322348;-63
2024/01/30 02:56:35;;;;;;;40.80;19.40;;;;;;;0.76;93.15;101097.80;109680;1251;60471;-63
2024/01/30 02:59:21;;;;;;;49.90;21.10;;;;;;;0.72;93.12;101102.61;109584;1251;73704;-64
2024/01/30 03:02:08;;;;;;;38.00;18.00;;;;;;;0.68;93.27;101103.73;108911;1251;1002410;-64
2024/01/30 03:04:55;;;;;;;41.30;17.70;;;;;;;0.65;93.67;101105.54;108816;1251;1002633;-64
2024/01/30 03:07:41;;;;;;;44.10;18.40;;;;;;;0.61;93.92;101104.73;109572;1251;57296;-64
2024/01/30 03:10:29;;;;;;;36.00;17.30;;;;;;;0.58;94.20;101106.89;109632;1251;61296;-65
2024/01/30 03:13:15;;;;;;;43.30;19.30;;;;;;;0.55;94.21;101103.98;109664;1251;74322;-63
2024/01/30 03:16:02;;;;;;;44.40;19.10;;;;;;;0.52;94.53;101102.46;109624;1251;68975;-64
2024/01/30 03:18:49;;;;;;;42.40;18.60;;;;;;;0.50;95.48;101104.27;109657;1251;72699;-64
2024/01/30 03:21:36;;;;;;;43.70;18.00;;;;;;;0.37;95.95;101087.56;109584;1251;57316;-64
2024/01/30 03:24:22;;;;;;;36.60;15.90;;;;;;;0.47;96.23;101099.95;109651;1251;60732;-63
2024/01/30 03:27:09;;;;;;;37.50;17.20;;;;;;;0.45;96.34;101102.95;109613;1251;73103;-63
2024/01/30 03:29:55;;;;;;;30.70;12.80;;;;;;;0.41;96.51;101098.50;109695;1251;68949;-63
2024/01/30 03:32:43;;;;;;;40.20;17.30;;;;;;;0.26;97.34;101086.21;109605;1251;73676;-64
2024/01/30 03:35:29;;;;;;;37.00;15.70;;;;;;;0.33;97.56;101099.50;109620;1251;57468;-64
2024/01/30 03:38:16;;;;;;;36.50;15.80;;;;;;;0.30;97.79;101095.88;109604;1251;58816;-64
2024/01/30 03:41:02;;;;;;;39.80;17.80;;;;;;;0.26;99.71;101095.80;109577;1250;71398;-64
2024/01/30 03:43:49;;;;;;;42.40;18.70;;;;;;;0.25;100.00;101091.46;109668;1251;67874;-63
2024/01/30 03:46:35;;;;;;;37.20;17.30;;;;;;;0.25;100.00;101090.59;109656;1251;72548;-63
2024/01/30 03:49:22;;;;;;;36.70;15.80;;;;;;;0.26;100.00;101080.95;109511;1251;57272;-63
2024/01/30 03:52:09;;;;;;;30.30;13.00;;;;;;;0.26;100.00;101081.67;109703;1251;59394;-65
2024/01/30 03:54:55;;;;;;;33.00;14.30;;;;;;;0.25;100.00;101085.52;109703;1251;73799;-64
2024/01/30 03:57:42;;;;;;;39.60;16.00;;;;;;;0.23;100.00;101090.78;109696;1251;68727;-64
2024/01/30 04:00:28;;;;;;;38.50;16.40;;;;;;;0.21;100.00;101091.88;109644;1251;71786;-66
2024/01/30 04:03:15;;;;;;;34.80;14.20;;;;;;;0.19;100.00;101094.36;109699;1251;57383;-64
2024/01/30 04:06:04;;;;;;;41.70;17.80;;;;;;;0.20;100.00;101092.42;109643;1251;61126;-66
2024/01/30 04:08:51;;;;;;;38.10;16.90;;;;;;;0.20;100.00;101089.63;109576;1251;71929;-65
2024/01/30 04:11:38;;;;;;;36.40;16.40;;;;;;;0.20;100.00;101084.73;109629;1250;66609;-66
2024/01/30 04:14:24;;;;;;;38.50;17.40;;;;;;;0.20;100.00;101080.36;109754;1251;72543;-64
2024/01/30 04:17:10;;;;;;;36.50;15.20;;;;;;;0.19;100.00;101078.48;109060;1251;1002330;-63
2024/01/30 04:19:57;;;;;;;37.80;16.10;;;;;;;0.17;100.00;101084.09;109088;1250;1002811;-63
2024/01/30 04:22:45;;;;;;;39.60;16.50;;;;;;;0.16;100.00;101087.44;108946;1250;1002965;-64
2024/01/30 04:25:31;;;;;;;35.00;16.70;;;;;;;0.15;100.00;101088.84;109616;1251;66917;-64
2024/01/30 04:28:18;;;;;;;39.80;16.10;;;;;;;0.14;100.00;101089.56;109697;1251;73610;-64
2024/01/30 04:31:05;;;;;;;37.10;16.80;;;;;;;0.14;100.00;101089.20;109595;1250;57364;-64
2024/01/30 04:33:52;;;;;;;33.90;16.30;;;;;;;0.14;100.00;101085.88;109649;1250;61216;-64
2024/01/30 04:36:38;;;;;;;33.90;13.80;;;;;;;0.13;100.00;101087.48;109629;1251;73795;-64
2024/01/30 04:39:25;;;;;;;35.20;15.30;;;;;;;0.12;100.00;101086.96;109652;1253;68890;-63
2024/01/30 04:42:11;;;;;;;39.30;17.20;;;;;;;0.13;100.00;101092.55;109578;1251;72591;-64
2024/01/30 04:44:58;;;;;;;38.60;17.60;;;;;;;0.16;100.00;101092.31;109630;1251;59624;-64
2024/01/30 04:47:46;;;;;;;43.00;19.00;;;;;;;0.19;100.00;101092.63;109629;1251;60058;-64
2024/01/30 04:50:32;;;;;;;39.50;18.10;;;;;;;0.21;100.00;101085.59;109682;1250;72830;-64
2024/01/30 04:53:19;;;;;;;41.00;16.90;;;;;;;0.23;100.00;101086.08;109653;1251;66085;-65
2024/01/30 04:56:06;;;;;;;36.60;15.30;;;;;;;0.23;100.00;101083.29;109642;1251;73783;-63
2024/01/30 04:58:52;;;;;;;36.40;16.10;;;;;;;0.21;100.00;101076.34;108863;1251;1002878;-64
2024/01/30 05:01:39;;;;;;;36.80;16.10;;;;;;;0.19;100.00;101079.00;108908;1251;1002912;-64
2024/01/30 05:04:26;;;;;;;43.00;17.90;;;;;;;0.15;100.00;101077.14;109649;1251;71769;-63
2024/01/30 05:07:12;;;;;;;41.00;17.60;;;;;;;0.15;100.00;101080.30;109711;1251;67839;-64
2024/01/30 05:09:59;;;;;;;40.60;18.40;;;;;;;0.15;100.00;101080.29;108072;1251;1002336;-65
2024/01/30 05:12:49;;;;;;;38.90;16.10;;;;;;;0.16;100.00;101089.86;109617;1251;57304;-65
2024/01/30 05:15:35;;;;;;;42.20;17.10;;;;;;;0.16;100.00;101090.23;109640;1251;61049;-63
2024/01/30 05:18:22;;;;;;;32.50;14.20;;;;;;;0.16;100.00;101087.26;109682;1251;72014;-64
2024/01/30 05:21:09;;;;;;;36.10;16.60;;;;;;;0.16;100.00;101091.62;109650;1251;67973;-64
2024/01/30 05:23:55;;;;;;;39.80;17.90;;;;;;;0.14;100.00;101089.22;109593;1251;72973;-64
2024/01/30 05:26:42;;;;;;;38.30;17.70;;;;;;;0.11;100.00;101082.81;109654;1251;57358;-63
2024/01/30 05:29:28;;;;;;;42.10;18.60;;;;;;;0.10;100.00;101081.09;109646;1251;57921;-64
2024/01/30 05:32:15;;;;;;;35.60;15.50;;;;;;;0.11;100.00;101081.23;109630;1251;73877;-63
2024/01/30 05:35:02;;;;;;;38.90;18.40;;;;;;;0.13;100.00;101078.57;109727;1251;66486;-65
2024/01/30 05:37:51;;;;;;;41.00;18.70;;;;;;;0.16;100.00;101073.48;109544;1251;71372;-65
2024/01/30 05:40:38;;;;;;;36.10;15.60;;;;;;;0.17;100.00;101073.61;109548;1253;57564;-64
2024/01/30 05:43:25;;;;;;;41.10;16.90;;;;;;;0.19;100.00;101074.83;109532;1251;61141;-64
2024/01/30 05:46:11;;;;;;;43.20;18.90;;;;;;;0.19;100.00;101077.95;109623;1251;73985;-63
2024/01/30 05:48:58;;;;;;;43.20;17.90;;;;;;;0.19;100.00;101087.55;109611;1252;67886;-65
2024/01/30 05:51:44;;;;;;;44.50;19.20;;;;;;;0.18;100.00;101085.65;109622;1251;70975;-66
2024/01/30 05:54:31;;;;;;;39.20;17.70;;;;;;;0.16;100.00;101092.66;109549;1251;57471;-64
2024/01/30 05:57:17;;;;;;;40.70;19.90;;;;;;;0.15;100.00;101094.25;109530;1251;60118;-65
2024/01/30 06:00:07;;;;;;;40.60;18.70;;;;;;;0.17;100.00;101097.36;109618;1251;72728;-65
2024/01/30 06:02:54;;;;;;;39.00;18.00;;;;;;;0.20;100.00;101096.79;109552;1251;66448;-65
2024/01/30 06:05:40;;;;;;;33.50;15.70;;;;;;;0.23;100.00;101093.40;109608;1251;73507;-64
2024/01/30 06:08:26;;;;;;;34.50;16.00;;;;;;;0.23;100.00;101094.64;109374;1251;57375;-64
2024/01/30 06:11:13;;;;;;;33.60;14.50;;;;;;;0.24;100.00;101097.42;108895;1251;1002154;-63
2024/01/30 06:14:00;;;;;;;37.10;15.60;;;;;;;0.23;100.00;101089.39;108855;1251;1002528;-65
2024/01/30 06:16:46;;;;;;;35.80;14.60;;;;;;;0.23;100.00;101089.91;109613;1250;67825;-64
2024/01/30 06:19:32;;;;;;;34.50;15.00;;;;;;;0.22;100.00;101095.85;109607;1251;71967;-65
2024/01/30 06:22:19;;;;;;;36.00;16.20;;;;;;;0.21;100.00;101092.56;109608;1251;57412;-65
2024/01/30 06:25:06;;;;;;;36.90;16.80;;;;;;;0.22;100.00;101095.36;109542;1251;60152;-66
2024/01/30 06:27:53;;;;;;;37.10;16.80;;;;;;;0.24;100.00;101090.25;109620;1251;71700;-63
2024/01/30 06:30:39;;;;;;;36.70;16.80;;;;;;;0.28;100.00;101095.41;109610;1250;66562;-65
2024/01/30 06:33:26;;;;;;;33.90;14.10;;;;;;;0.32;100.00;101089.40;109761;1250;72776;-64
2024/01/30 06:36:12;;;;;;;30.10;13.50;;;;;;;0.34;100.00;101085.34;109669;1250;57354;-66
2024/01/30 06:38:59;;;;;;;34.60;13.70;;;;;;;0.34;100.00;101085.34;109593;1250;61039;-64
2024/01/30 06:41:46;;;;;;;29.90;13.70;;;;;;;0.33;100.00;101083.10;109764;1250;71774;-65
2024/01/30 06:44:32;;;;;;;31.90;14.10;;;;;;;0.31;100.00;101086.45;109591;1250;68659;-63
2024/01/30 06:47:19;;;;;;;35.10;16.50;;;;;;;0.32;100.00;101087.48;109711;1250;72470;-64
2024/01/30 06:50:07;;;;;;;36.20;17.50;;;;;;;0.36;100.00;101086.01;109693;1250;59706;-67
2024/01/30 06:52:53;;;;;;;35.70;16.90;;;;;;;0.42;100.00;101085.72;109694;1250;60165;-64
2024/01/30 06:55:39;;;;;;;39.40;17.40;;;;;;;0.48;100.00;101086.13;109791;1250;71357;-64
2024/01/30 06:58:26;;;;;;;39.40;16.90;;;;;;;0.51;100.00;101087.47;109769;1249;65531;-64
2024/01/30 07:01:12;;;;;;;36.10;15.80;;;;;;;0.54;100.00;101084.09;109008;1250;1002180;-65
2024/01/30 07:03:59;;;;;;;37.90;16.70;;;;;;;0.56;100.00;101080.38;109817;1250;57381;-66
2024/01/30 07:06:46;;;;;;;39.20;16.10;;;;;;;0.58;100.00;101074.94;109885;1250;61370;-63
2024/01/30 07:09:34;;;;;;;34.40;13.30;;;;;;;0.61;100.00;101075.04;109680;1250;72827;-64
2024/01/30 07:12:20;;;;;;;38.40;17.40;;;;;;;0.65;100.00;101077.06;109618;1251;68350;-64
2024/01/30 07:15:10;;;;;;;36.90;15.70;;;;;;;0.70;100.00;101076.44;109632;1251;73735;-65
2024/01/30 07:17:56;;;;;;;31.50;14.60;;;;;;;0.78;100.00;101078.90;109577;1250;57320;-64
2024/01/30 07:20:46;;;;;;;34.00;15.00;;;;;;;0.84;100.00;101075.62;109659;1251;61153;-63
2024/01/30 07:23:34;;;;;;;33.00;14.40;;;;;;;0.90;100.00;101077.07;109679;1251;72922;-64
2024/01/30 07:26:21;;;;;;;33.50;14.20;;;;;;;0.94;99.84;101080.80;109583;1253;68808;-65
2024/01/30 07:29:07;;;;;;;34.40;15.20;;;;;;;0.98;99.60;101080.04;109528;1251;72473;-64
2024/01/30 07:31:53;;;;;;;34.20;16.20;;;;;;;1.04;99.22;101076.77;109589;1250;57988;-65
2024/01/30 07:34:40;;;;;;;35.30;16.70;;;;;;;1.10;98.92;101077.66;109631;1251;58761;-64
2024/01/30 07:37:39;;;;;;;39.10;16.90;;;;;;;1.17;98.89;101080.31;109636;1252;73263;-65
2024/01/30 07:40:25;;;;;;;36.70;17.30;;;;;;;1.26;98.94;101081.86;109614;1250;66557;-63
2024/01/30 07:43:12;;;;;;;34.00;15.30;;;;;;;1.35;98.64;101081.31;109668;1250;71242;-62
2024/01/30 07:46:00;;;;;;;33.40;16.30;;;;;;;1.43;97.65;101079.02;109642;1250;57432;-64
2024/01/30 07:48:47;;;;;;;38.10;16.70;;;;;;;1.51;97.20;101078.66;109695;1250;60073;-65
2024/01/30 07:51:33;;;;;;;33.60;14.80;;;;;;;1.61;97.11;101077.36;109799;1250;74099;-64
2024/01/30 07:54:20;;;;;;;39.40;16.70;;;;;;;1.72;96.67;101078.67;109738;1250;66310;-63
2024/01/30 07:57:06;;;;;;;35.40;15.20;;;;;;;1.80;95.81;101077.95;109661;1249;71862;-64
2024/01/30 07:59:54;;;;;;;37.70;16.40;;;;;;;1.87;95.00;101079.70;109627;1250;57456;-65
2024/01/30 08:02:40;;;;;;;38.30;16.10;;;;;;;1.73;94.01;101046.48;109696;1251;60277;-66
2024/01/30 08:05:26;;;;;;;43.30;19.70;;;;;;;1.97;94.28;101078.75;108838;1254;1002189;-66
2024/01/30 08:08:13;;;;;;;38.40;16.30;;;;;;;2.07;93.88;101082.35;109644;1250;68757;-66
2024/01/30 08:10:59;;;;;;;33.40;14.70;;;;;;;2.16;93.05;101077.57;109582;1251;71470;-65
2024/01/30 08:13:46;;;;;;;43.10;18.00;;;;;;;2.20;91.88;101077.27;109634;1250;59696;-64
2024/01/30 08:16:32;;;;;;;40.60;19.10;;;;;;;2.28;91.46;101076.19;109590;1253;61016;-65
2024/01/30 08:19:19;;;;;;;39.30;17.40;;;;;;;2.44;91.83;101076.96;109663;1250;73850;-65
2024/01/30 08:22:05;;;;;;;39.10;18.00;;;;;;;2.62;91.53;101076.13;109743;1250;67847;-64
2024/01/30 08:24:52;;;;;;;36.50;16.80;;;;;;;2.80;90.72;101073.15;109598;1250;71449;-65
2024/01/30 08:27:38;;;;;;;37.40;16.80;;;;;;;2.97;89.57;101071.06;109396;1249;58016;-66
2024/01/30 08:30:25;;;;;;;36.20;16.50;;;;;;;3.16;88.98;101065.06;109751;1250;60235;-64
2024/01/30 08:33:13;;;;;;;36.20;16.00;;;;;;;3.44;88.03;101059.61;109478;1250;73299;-64
2024/01/30 08:36:00;;;;;;;32.30;14.80;;;;;;;3.91;86.05;101060.72;109685;1251;66692;-63
2024/01/30 08:38:46;;;;;;;28.40;14.20;;;;;;;4.43;82.50;101059.25;109541;1251;72430;-65
2024/01/30 08:41:33;;;;;;;33.70;14.30;;;;;;;4.97;80.18;101054.42;109576;1251;59500;-65
2024/01/30 08:44:21;;;;;;;26.20;12.20;;;;;;;5.37;76.85;101054.81;109557;1251;58993;-64
2024/01/30 08:47:07;;;;;;;33.40;15.70;;;;;;;5.53;74.00;101059.42;109619;1251;72898;-64
2024/01/30 08:49:54;;;;;;;33.00;14.70;;;;;;;5.73;73.12;101061.41;109642;1251;67668;-64
2024/01/30 08:52:40;;;;;;;28.90;15.00;;;;;;;6.04;71.15;101065.96;108083;1251;1003015;-64
2024/01/30 08:55:27;;;;;;;31.80;14.50;;;;;;;6.23;69.34;101069.59;109491;1250;57595;-65
2024/01/30 08:58:13;;;;;;;31.00;14.90;;;;;;;6.28;68.98;101069.54;109658;1249;59729;-63
2024/01/30 09:01:00;;;;;;;35.20;15.20;;;;;;;6.31;68.83;101069.92;109588;1251;74037;-64
2024/01/30 09:03:46;;;;;;;34.60;14.90;;;;;;;6.56;68.84;101067.02;109539;1251;66591;-63
2024/01/30 09:06:33;;;;;;;32.40;13.50;;;;;;;6.83;67.28;101067.07;109608;1250;73499;-67
2024/01/30 09:09:19;;;;;;;36.60;16.40;;;;;;;7.10;66.49;101063.90;109584;1251;58280;-63
2024/01/30 09:12:09;;;;;;;29.50;14.00;;;;;;;7.44;64.87;101062.25;109472;1251;61140;-66
2024/01/30 09:14:55;;;;;;;29.70;14.70;;;;;;;7.67;63.12;101064.17;109640;1250;72797;-64
2024/01/30 09:17:42;;;;;;;31.10;16.30;;;;;;;7.81;62.09;101058.16;109669;1251;67906;-65
2024/01/30 09:20:28;;;;;;;33.00;14.60;;;;;;;7.95;61.76;101055.52;109376;1250;72383;-65
2024/01/30 09:23:20;;;;;;;31.80;14.90;;;;;;;7.98;60.93;101058.34;108110;1249;1002582;-64
2024/01/30 09:26:06;;;;;;;27.70;13.70;;;;;;;8.07;59.59;101060.39;109672;1251;60027;-65
2024/01/30 09:28:53;;;;;;;27.00;13.50;;;;;;;8.25;59.67;101055.37;109573;1250;72884;-63
2024/01/30 09:31:43;;;;;;;27.50;14.10;;;;;;;8.53;58.76;101055.01;109667;1250;69256;-64
2024/01/30 09:34:30;;;;;;;30.70;14.60;;;;;;;8.80;57.59;101054.26;109535;1250;73546;-66
2024/01/30 09:37:17;;;;;;;28.50;14.50;;;;;;;9.05;56.86;101045.67;109522;1250;57432;-64
2024/01/30 09:40:06;;;;;;;28.00;14.60;;;;;;;9.57;55.88;101049.97;109542;1251;61052;-65
2024/01/30 09:42:54;;;;;;;30.80;14.90;;;;;;;10.06;54.59;101048.52;109595;1251;72130;-66
2024/01/30 09:45:43;;;;;;;30.50;15.50;;;;;;;10.77;51.54;101041.06;109635;1250;68852;-64
2024/01/30 09:48:31;;;;;;;28.30;15.60;;;;;;;11.47;50.22;101042.39;109504;1251;72360;-65
2024/01/30 09:51:18;;;;;;;28.00;14.10;;;;;;;12.34;47.94;101039.58;109563;1251;57415;-65
2024/01/30 09:54:05;;;;;;;30.10;15.00;;;;;;;13.02;45.13;101037.61;109578;1251;58850;-64
2024/01/30 09:56:51;;;;;;;29.00;15.10;;;;;;;13.57;44.44;101037.20;109522;1253;73739;-66
2024/01/30 09:59:37;;;;;;;28.30;14.60;;;;;;;13.87;43.24;101031.58;109552;1251;67508;-68
2024/01/30 10:02:24;;;;;;;25.90;14.40;;;;;;;13.76;42.51;101033.82;109608;1251;71067;-65
2024/01/30 10:05:15;;;;;;;27.40;14.90;;;;;;;13.66;42.99;101031.54;108807;1251;1002378;-66
2024/01/30 10:08:08;;;;;;;27.20;13.90;;;;;;;13.57;42.66;101031.16;109326;1252;61412;-69
2024/01/30 10:10:57;;;;;;;28.60;14.70;;;;;;;13.44;42.47;101029.80;109589;1251;72872;-65
2024/01/30 10:13:46;;;;;;;25.70;14.30;;;;;;;13.23;42.55;101026.16;109544;1251;66362;-67
2024/01/30 10:16:37;;;;;;;25.80;13.80;;;;;;;12.67;42.98;101018.62;109375;1252;72311;-72
2024/01/30 10:19:24;;;;;;;27.50;14.20;;;;;;;12.73;44.02;101021.52;109451;1251;57322;-70
2024/01/30 10:22:11;;;;;;;23.60;13.20;;;;;;;13.03;44.54;101014.23;109417;1251;60186;-68
2024/01/30 10:24:59;;;;;;;24.80;13.30;;;;;;;13.66;42.99;101016.41;109067;1254;73123;-66
2024/01/30 10:27:58;;;;;;;26.10;13.50;;;;;;;14.24;42.30;101018.33;109183;1256;67633;-65
2024/01/30 10:30:44;;;;;;;22.70;12.50;;;;;;;14.90;41.13;101008.06;109074;1256;73635;-67
2024/01/30 10:33:31;;;;;;;23.40;13.30;;;;;;;15.33;40.04;101013.98;109271;1255;57460;-67
2024/01/30 10:36:19;;;;;;;20.70;11.70;;;;;;;15.56;39.67;101010.44;109215;1255;61593;-68
2024/01/30 10:39:07;;;;;;;22.10;12.90;;;;;;;15.66;39.41;101001.23;109181;1256;71942;-64
2024/01/30 10:41:58;;;;;;;23.00;13.80;;;;;;;15.73;39.21;100999.63;109273;1256;67709;-65
2024/01/30 10:45:05;;;;;;;22.50;13.10;;;;;;;15.99;38.77;100995.28;109159;1256;73492;-65
2024/01/30 10:47:58;;;;;;;24.20;13.60;;;;;;;16.00;37.71;100993.34;109208;1254;57489;-64
2024/01/30 10:50:45;;;;;;;23.70;13.00;;;;;;;15.84;38.05;100988.10;109243;1256;60258;-65
2024/01/30 10:53:46;;;;;;;21.60;12.20;;;;;;;15.71;37.52;100983.11;109192;1256;72827;-67
2024/01/30 10:56:34;;;;;;;22.20;12.60;;;;;;;15.54;38.37;100981.70;109485;1251;69006;-66
2024/01/30 10:59:23;;;;;;;21.00;10.80;;;;;;;15.52;38.56;100983.48;109520;1251;73670;-65
2024/01/30 11:02:11;;;;;;;22.00;12.10;;;;;;;15.26;38.05;100980.81;109566;1251;57658;-68
2024/01/30 11:04:59;;;;;;;22.90;12.30;;;;;;;15.19;38.37;100981.34;109373;1251;58832;-65
2024/01/30 11:07:46;;;;;;;26.20;12.20;;;;;;;15.33;38.65;100980.14;109564;1251;71801;-65
2024/01/30 11:10:44;;;;;;;24.10;13.00;;;;;;;15.39;38.10;100976.52;109690;1251;66369;-64
2024/01/30 11:13:31;;;;;;;23.10;11.90;;;;;;;15.52;38.40;100973.79;109583;1251;73654;-67
2024/01/30 11:16:20;;;;;;;22.30;11.50;;;;;;;15.78;37.95;100973.41;109598;1251;57365;-65
2024/01/30 11:19:14;;;;;;;20.30;11.20;;;;;;;15.82;37.59;100974.55;109502;1251;60099;-64
2024/01/30 11:22:00;;;;;;;24.80;13.40;;;;;;;15.83;37.99;100969.45;109588;1253;73090;-72
2024/01/30 11:24:47;;;;;;;24.80;14.40;;;;;;;15.78;37.63;100964.25;109592;1251;66737;-70
2024/01/30 11:27:34;;;;;;;23.00;11.80;;;;;;;15.90;37.77;100958.45;109608;1251;72726;-71
2024/01/30 11:30:25;;;;;;;21.60;12.00;;;;;;;16.07;37.74;100950.54;109542;1253;57237;-72
2024/01/30 11:33:30;;;;;;;18.70;10.60;;;;;;;16.03;37.85;100949.25;109568;1251;59103;-71
2024/01/30 11:36:25;;;;;;;21.60;12.50;;;;;;;16.02;37.45;100945.77;109409;1255;72791;-72
2024/01/30 11:39:15;;;;;;;23.50;13.00;;;;;;;15.98;37.63;100943.29;109573;1256;67797;-65
2024/01/30 11:42:04;;;;;;;19.30;11.10;;;;;;;16.01;37.65;100935.30;109508;1254;73480;-65
2024/01/30 11:44:54;;;;;;;22.00;11.10;;;;;;;15.88;37.46;100934.85;109525;1251;59119;-67
2024/01/30 11:47:40;;;;;;;19.70;10.70;;;;;;;15.55;37.50;100933.27;109570;1251;60120;-65
2024/01/30 11:50:34;;;;;;;21.30;11.20;;;;;;;15.38;37.95;100932.25;109604;1251;71530;-65
2024/01/30 11:53:22;;;;;;;18.90;11.10;;;;;;;15.25;38.65;100921.90;109608;1251;68995;-67
2024/01/30 11:56:08;;;;;;;19.70;11.30;;;;;;;14.85;39.19;100921.45;109565;1254;73279;-64
2024/01/30 11:58:55;;;;;;;22.30;12.00;;;;;;;14.46;40.29;100916.14;109590;1255;57802;-67
2024/01/30 12:01:41;;;;;;;23.80;13.20;;;;;;;14.14;40.53;100915.31;109595;1251;60246;-63
2024/01/30 12:04:29;;;;;;;21.70;11.90;;;;;;;13.70;41.14;100923.03;109590;1251;74061;-66
2024/01/30 12:07:16;;;;;;;22.50;12.00;;;;;;;13.33;42.08;100922.77;109609;1251;68713;-64
2024/01/30 12:10:03;;;;;;;22.70;11.60;;;;;;;12.83;42.85;100917.55;109501;1254;72486;-65
2024/01/30 12:12:50;;;;;;;25.70;12.50;;;;;;;12.41;43.83;100920.77;109618;1251;57905;-65
2024/01/30 12:15:37;;;;;;;23.80;13.20;;;;;;;12.17;44.53;100917.13;109549;1251;59282;-66
2024/01/30 12:18:23;;;;;;;25.30;13.20;;;;;;;12.00;44.93;100917.09;109558;1251;73881;-67
2024/01/30 12:21:10;;;;;;;25.90;12.80;;;;;;;11.82;45.78;100910.68;109533;1251;67708;-64
2024/01/30 12:23:57;;;;;;;27.50;14.10;;;;;;;11.64;46.18;100911.33;109523;1251;70380;-64
2024/01/30 12:26:44;;;;;;;30.00;15.00;;;;;;;11.42;46.89;100909.48;109629;1251;57232;-66
2024/01/30 12:29:33;;;;;;;28.50;14.40;;;;;;;11.04;47.57;100912.34;109615;1250;60227;-62
2024/01/30 12:32:24;;;;;;;29.70;14.20;;;;;;;10.82;48.67;100916.08;109669;1251;72885;-65
2024/01/30 12:35:15;;;;;;;28.80;14.80;;;;;;;10.79;49.26;100914.67;109795;1251;67569;-65